createdAt,value
2016-09-20T13:32:34.239Z,39.03
2016-09-20T13:33:33.976Z,36.13
2016-09-20T13:34:33.906Z,36.05
2016-09-20T13:35:33.843Z,35.84
2016-09-20T13:37:33.915Z,35.72
2016-09-20T13:38:33.652Z,35.92
2016-09-20T13:39:33.787Z,36.11
2016-09-20T13:40:33.843Z,36.3
2016-09-20T13:41:33.458Z,35.92
2016-09-20T13:42:33.398Z,35.44
2016-09-20T13:43:33.336Z,35.53
2016-09-20T13:44:33.493Z,35.53
2016-09-20T13:45:33.825Z,35.63
2016-09-20T13:46:33.353Z,35.53
2016-09-20T13:47:33.636Z,35.53
2016-09-20T13:48:33.360Z,35.63
2016-09-20T13:49:33.000Z,35.34
2016-09-20T13:50:33.166Z,35.63
2016-09-20T13:51:32.846Z,35.34
2016-09-20T13:52:32.797Z,35.24
2016-09-20T13:53:32.918Z,35.53
2016-09-20T13:54:32.668Z,35.53
2016-09-20T13:55:32.604Z,35.53
2016-09-20T13:56:32.769Z,35.34
2016-09-20T13:57:32.483Z,35.53
2016-09-20T13:58:32.419Z,35.63
2016-09-20T13:59:32.352Z,35.63
2016-09-20T14:00:32.316Z,35.34
2016-09-20T14:01:32.447Z,35.44
2016-09-20T14:02:32.195Z,35.53
2016-09-20T14:03:32.324Z,35.53
2016-09-20T14:04:32.281Z,34.66
2016-09-20T14:05:32.321Z,34.76
2016-09-20T14:06:31.974Z,35.05
2016-09-20T14:07:31.863Z,34.86
2016-09-20T14:08:31.803Z,34.66
2016-09-20T14:09:31.752Z,34.86
2016-09-20T14:10:31.690Z,35.34
2016-09-20T14:11:31.625Z,34.76
2016-09-20T14:12:31.572Z,34.76
2016-09-20T14:13:31.511Z,35.14
2016-09-20T14:14:31.446Z,35.82
2016-09-20T14:15:31.377Z,34.95
2016-09-20T14:16:32.319Z,35.34
2016-09-20T14:17:31.468Z,35.05
2016-09-20T14:18:31.518Z,35.82
2016-09-20T14:19:31.453Z,34.76
2016-09-20T14:20:31.075Z,35.05
2016-09-20T14:21:31.236Z,35.82
2016-09-20T14:22:30.964Z,35.05
2016-09-20T14:23:30.905Z,35.44
2016-09-20T14:24:30.835Z,34.95
2016-09-20T14:25:30.783Z,35.24
2016-09-20T14:26:30.715Z,34.86
2016-09-20T14:27:30.664Z,35.14
2016-09-20T14:28:30.599Z,35.92
2016-09-20T14:29:30.545Z,34.66
2016-09-20T14:31:30.425Z,34.66
2016-09-20T14:32:30.665Z,35.14
2016-09-20T14:33:30.288Z,34.66
2016-09-20T14:34:30.230Z,34.95
2016-09-20T14:36:30.116Z,34.66
2016-09-20T14:37:30.359Z,35.14
2016-09-20T14:38:29.994Z,34.84
2016-09-20T14:39:29.931Z,35.24
2016-09-20T14:40:30.073Z,34.76
2016-09-20T14:41:29.817Z,34.66
2016-09-20T14:42:29.754Z,34.66
2016-09-20T14:43:29.890Z,35.24
2016-09-20T14:44:29.855Z,35.52
2016-09-20T14:45:29.563Z,35.53
2016-09-20T14:46:29.500Z,35.34
2016-09-20T14:47:29.451Z,35.34
2016-09-20T14:48:29.691Z,35.34
2016-09-20T14:49:29.521Z,35.53
2016-09-20T14:50:29.572Z,35.61
2016-09-20T14:51:29.514Z,35.71
2016-09-20T14:52:29.361Z,35.72
2016-09-20T14:53:29.284Z,35.44
2016-09-20T14:54:29.025Z,35.52
2016-09-20T14:55:28.960Z,35.53
2016-09-20T14:56:28.895Z,35.42
2016-09-20T14:57:28.834Z,35.63
2016-09-20T14:58:28.777Z,35.53
2016-09-20T14:59:28.961Z,35.63
2016-09-20T15:00:29.168Z,35.34
2016-09-20T15:01:28.590Z,35.92
2016-09-20T15:02:28.535Z,35.34
2016-09-20T15:03:28.467Z,35.92
2016-09-20T15:04:28.612Z,35.53
2016-09-20T15:05:28.349Z,35.53
2016-09-20T15:06:28.306Z,35.44
2016-09-20T15:07:28.230Z,35.52
2016-09-20T15:08:28.175Z,35.61
2016-09-20T15:09:28.110Z,35.71
2016-09-20T15:10:28.048Z,35.72
2016-09-20T15:11:29.195Z,35.8
2016-09-20T15:12:27.926Z,36
2016-09-20T15:13:28.079Z,35.71
2016-09-20T15:14:27.827Z,36.09
2016-09-20T15:15:27.747Z,35.8
2016-09-20T15:16:27.886Z,35.61
2016-09-20T15:17:27.949Z,35.61
2016-09-20T15:18:27.568Z,35.72
2016-09-20T15:19:27.928Z,35.8
2016-09-20T15:20:27.448Z,35.71
2016-09-20T15:21:27.378Z,35.9
2016-09-20T15:22:27.324Z,35.9
2016-09-20T15:23:27.285Z,35.82
2016-09-20T15:24:27.195Z,35.9
2016-09-20T15:25:27.662Z,36.11
2016-09-20T15:26:27.079Z,36
2016-09-20T15:27:27.217Z,36.19
2016-09-20T15:28:26.970Z,35.92
2016-09-20T15:29:26.900Z,35.9
2016-09-20T15:30:27.084Z,36
2016-09-20T15:31:27.103Z,35.92
2016-09-20T15:32:26.725Z,35.92
2016-09-20T15:33:26.661Z,35.9
2016-09-20T15:34:26.907Z,36
2016-09-20T15:35:26.550Z,36.19
2016-09-20T15:36:26.468Z,36.29
2016-09-20T15:37:26.408Z,36.21
2016-09-20T15:38:26.352Z,36.29
2016-09-20T15:39:26.288Z,36.29
2016-09-20T15:40:26.235Z,36.38
2016-09-20T15:41:26.369Z,36.48
2016-09-20T15:42:26.431Z,36.38
2016-09-20T15:43:26.048Z,36.87
2016-09-20T15:44:26.293Z,37.15
2016-09-20T15:45:25.928Z,37.06
2016-09-20T15:46:25.871Z,36.87
2016-09-20T15:47:26.039Z,37.35
2016-09-20T15:48:25.750Z,37.54
2016-09-20T15:49:25.687Z,37.45
2016-09-20T15:50:25.644Z,37.45
2016-09-20T15:51:25.564Z,37.73
2016-09-20T15:52:25.713Z,37.73
2016-09-20T15:53:25.444Z,37.54
2016-09-20T15:54:25.379Z,37.73
2016-09-20T15:55:25.324Z,37.83
2016-09-20T15:56:25.259Z,37.45
2016-09-20T15:57:25.204Z,37.73
2016-09-20T15:58:25.138Z,38.02
2016-09-20T15:59:25.081Z,38.12
2016-09-20T16:00:25.012Z,38.12
2016-09-20T16:01:24.957Z,38.21
2016-09-20T16:02:24.898Z,37.93
2016-09-20T16:03:24.837Z,38.21
2016-09-20T16:04:24.784Z,38.31
2016-09-20T16:05:25.024Z,38.41
2016-09-20T16:06:24.668Z,38.21
2016-09-20T16:07:24.589Z,38.12
2016-09-20T16:08:24.538Z,38.31
2016-09-20T16:09:24.468Z,38.21
2016-09-20T16:10:24.406Z,38.31
2016-09-20T16:11:24.353Z,38.41
2016-09-20T16:12:24.292Z,38.41
2016-09-20T16:13:24.236Z,38.33
2016-09-20T16:14:24.170Z,38.41
2016-09-20T16:15:24.112Z,38.31
2016-09-20T16:16:24.053Z,38.31
2016-09-20T16:17:23.993Z,38.43
2016-09-20T16:18:23.932Z,38.6
2016-09-20T16:19:23.873Z,38.51
2016-09-20T16:20:23.803Z,38.6
2016-09-20T16:21:23.741Z,38.51
2016-09-20T16:22:24.012Z,38.51
2016-09-20T16:23:23.624Z,38.7
2016-09-20T16:24:23.564Z,38.41
2016-09-20T16:25:23.819Z,38.51
2016-09-20T16:26:23.441Z,38.79
2016-09-20T16:27:23.388Z,38.6
2016-09-20T16:28:23.317Z,38.79
2016-09-20T16:29:23.459Z,38.51
2016-09-20T16:30:23.412Z,38.51
2016-09-20T16:31:23.380Z,38.51
2016-09-20T16:32:23.080Z,38.89
2016-09-20T16:33:23.041Z,39.18
2016-09-20T16:34:22.958Z,39.18
2016-09-20T16:35:22.908Z,39.09
2016-09-20T16:36:22.837Z,39.28
2016-09-20T16:37:22.789Z,38.99
2016-09-20T16:38:23.029Z,39.09
2016-09-20T16:39:22.878Z,38.89
2016-09-20T16:40:22.594Z,38.99
2016-09-20T16:41:22.539Z,38.89
2016-09-20T16:42:23.482Z,38.89
2016-09-20T16:43:24.669Z,38.89
2016-09-20T16:44:22.350Z,38.89
2016-09-20T16:45:22.613Z,38.99
2016-09-20T16:46:22.224Z,38.79
2016-09-20T16:47:22.166Z,39.18
2016-09-20T16:48:22.104Z,39.28
2016-09-20T16:49:22.041Z,39.28
2016-09-20T16:50:21.985Z,39.57
2016-09-20T16:51:22.244Z,39.47
2016-09-20T16:52:22.060Z,39.37
2016-09-20T16:53:21.799Z,39.37
2016-09-20T16:54:21.765Z,39.37
2016-09-20T16:55:21.685Z,39.28
2016-09-20T16:56:21.631Z,39.37
2016-09-20T16:57:21.556Z,39.37
2016-09-20T16:58:21.496Z,39.47
2016-09-20T16:59:21.434Z,39.37
2016-09-20T17:00:21.390Z,39.37
2016-09-20T17:01:21.322Z,39.47
2016-09-20T17:02:21.255Z,39.37
2016-09-20T17:03:21.719Z,39.28
2016-09-20T17:04:21.137Z,39.37
2016-09-20T17:05:21.387Z,39.47
2016-09-20T17:06:21.013Z,39.47
2016-09-20T17:07:20.979Z,39.47
2016-09-20T17:08:21.117Z,39.28
2016-09-20T17:09:20.831Z,39.57
2016-09-20T17:10:20.978Z,39.47
2016-09-20T17:11:20.710Z,39.37
2016-09-20T17:12:20.650Z,39.37
2016-09-20T17:13:20.795Z,39.57
2016-09-20T17:14:20.529Z,39.57
2016-09-20T17:15:20.779Z,39.66
2016-09-20T17:16:20.419Z,39.95
2016-09-20T17:17:20.657Z,39.86
2016-09-20T17:18:20.596Z,39.66
2016-09-20T17:19:20.436Z,39.95
2016-09-20T17:20:20.177Z,40.05
2016-09-20T17:21:20.111Z,39.95
2016-09-20T17:22:20.293Z,39.95
2016-09-20T17:23:19.988Z,40.15
2016-09-20T17:24:19.923Z,39.95
2016-09-20T17:25:19.861Z,40.05
2016-09-20T17:26:19.800Z,40.05
2016-09-20T17:27:19.748Z,39.76
2016-09-20T17:28:19.681Z,39.86
2016-09-20T17:29:19.827Z,39.86
2016-09-20T17:30:19.761Z,40.05
2016-09-20T17:31:19.494Z,40.44
2016-09-20T17:32:19.765Z,40.44
2016-09-20T17:33:19.387Z,40.53
2016-09-20T17:34:19.327Z,40.44
2016-09-20T17:35:19.265Z,40.24
2016-09-20T17:36:20.411Z,40.24
2016-09-20T17:37:19.350Z,40.15
2016-09-20T17:38:34.031Z,40.24
2016-09-20T17:39:19.023Z,40.15
2016-09-20T17:40:19.164Z,40.05
2016-09-20T17:41:19.211Z,40.15
2016-09-20T17:42:18.828Z,40.05
2016-09-20T17:43:18.791Z,40.72
2016-09-20T17:44:19.242Z,40.05
2016-09-20T17:45:18.646Z,40.24
2016-09-20T17:46:18.594Z,40.15
2016-09-20T17:47:18.531Z,40.44
2016-09-20T17:48:18.466Z,40.53
2016-09-20T17:49:18.407Z,40.53
2016-09-20T17:50:18.348Z,40.53
2016-09-20T17:51:18.288Z,40.53
2016-09-20T17:52:18.220Z,40.53
2016-09-20T17:53:18.367Z,40.44
2016-09-20T17:54:18.123Z,40.44
2016-09-20T17:55:18.240Z,40.44
2016-09-20T17:56:17.981Z,40.34
2016-09-20T17:57:17.923Z,40.15
2016-09-20T17:58:17.869Z,40.53
2016-09-20T17:59:17.798Z,40.44
2016-09-20T18:00:18.047Z,40.44
2016-09-20T18:01:17.877Z,40.53
2016-09-20T18:02:17.619Z,40.05
2016-09-20T18:03:17.759Z,40.05
2016-09-20T18:04:17.500Z,40.34
2016-09-20T18:05:17.452Z,40.24
2016-09-20T18:06:17.372Z,40.44
2016-09-20T18:07:17.317Z,40.34
2016-09-20T18:08:17.565Z,40.15
2016-09-20T18:09:17.400Z,40.05
2016-09-20T18:10:17.141Z,40.44
2016-09-20T18:11:17.068Z,40.53
2016-09-20T18:12:17.022Z,40.53
2016-09-20T18:13:17.160Z,40.44
2016-09-20T18:14:16.890Z,40.15
2016-09-20T18:15:17.163Z,40.15
2016-09-20T18:16:16.763Z,40.15
2016-09-20T18:17:16.714Z,40.63
2016-09-20T18:18:16.651Z,40.53
2016-09-20T18:19:16.590Z,40.24
2016-09-20T18:20:16.531Z,40.34
2016-09-20T18:21:16.781Z,40.05
2016-09-20T18:22:16.406Z,40.05
2016-09-20T18:23:16.343Z,39.86
2016-09-20T18:24:16.293Z,40.05
2016-09-20T18:25:16.732Z,40.05
2016-09-20T18:26:16.188Z,40.15
2016-09-20T18:27:16.111Z,40.15
2016-09-20T18:28:16.034Z,40.24
2016-09-20T18:29:15.980Z,40.24
2016-09-20T18:30:15.929Z,40.44
2016-09-20T18:31:16.059Z,40.24
2016-09-20T18:32:15.994Z,40.24
2016-09-20T18:33:15.732Z,40.53
2016-09-20T18:34:15.681Z,40.34
2016-09-20T18:35:15.615Z,40.44
2016-09-20T18:36:15.563Z,40.24
2016-09-20T18:37:15.492Z,40.34
2016-09-20T18:38:15.432Z,40.24
2016-09-20T18:39:15.368Z,40.24
2016-09-20T18:40:16.461Z,40.53
2016-09-20T18:41:15.246Z,40.24
2016-09-20T18:42:15.195Z,40.24
2016-09-20T18:43:15.126Z,40.24
2016-09-20T18:44:15.070Z,40.24
2016-09-20T18:45:15.321Z,40.24
2016-09-20T18:46:14.942Z,40.24
2016-09-20T18:47:14.895Z,40.34
2016-09-20T18:48:15.339Z,40.24
2016-09-20T18:49:14.765Z,40.05
2016-09-20T18:50:14.716Z,40.15
2016-09-20T18:51:14.645Z,40.15
2016-09-20T18:52:14.919Z,40.05
2016-09-20T18:53:14.534Z,40.24
2016-09-20T18:54:14.457Z,40.63
2016-09-20T18:55:14.404Z,40.53
2016-09-20T18:56:14.648Z,39.95
2016-09-20T18:57:14.318Z,40.34
2016-09-20T18:58:14.419Z,40.15
2016-09-20T18:59:14.161Z,40.44
2016-09-20T19:00:14.092Z,40.34
2016-09-20T19:01:14.546Z,40.53
2016-09-20T19:02:13.979Z,40.24
2016-09-20T19:03:13.914Z,40.15
2016-09-20T19:04:13.856Z,40.44
2016-09-20T19:05:14.118Z,40.44
2016-09-20T19:06:14.237Z,40.24
2016-09-20T19:07:13.673Z,40.53
2016-09-20T19:08:14.908Z,40.44
2016-09-20T19:09:13.553Z,40.44
2016-09-20T19:10:13.480Z,40.12
2016-09-20T19:11:13.424Z,40.42
2016-09-20T19:12:13.372Z,40.61
2016-09-20T19:13:13.300Z,40.72
2016-09-20T19:14:13.559Z,40.42
2016-09-20T19:15:13.493Z,40.44
2016-09-20T19:16:13.112Z,40.82
2016-09-20T19:17:13.067Z,40.34
2016-09-20T19:18:13.323Z,40.7
2016-09-20T19:19:12.958Z,40.72
2016-09-20T19:20:12.876Z,40.72
2016-09-20T19:21:13.128Z,40.72
2016-09-20T19:22:12.751Z,40.7
2016-09-20T19:23:14.231Z,40.53
2016-09-20T19:24:12.628Z,40.61
2016-09-20T19:25:12.879Z,40.51
2016-09-20T19:26:12.816Z,40.51
2016-09-20T19:27:12.464Z,40.61
2016-09-20T19:28:12.402Z,40.61
2016-09-20T19:29:12.736Z,40.99
2016-09-20T19:30:12.272Z,40.8
2016-09-20T19:31:12.406Z,40.51
2016-09-20T19:32:12.471Z,40.61
2016-09-20T19:33:12.079Z,40.8
2016-09-20T19:34:12.351Z,40.8
2016-09-20T19:35:11.979Z,40.9
2016-09-20T19:36:11.895Z,41.38
2016-09-20T19:37:11.836Z,41.28
2016-09-20T19:38:11.781Z,40.42
2016-09-20T19:39:11.712Z,40.8
2016-09-20T19:40:11.651Z,40.9
2016-09-20T19:41:11.594Z,41.09
2016-09-20T19:42:11.529Z,40.9
2016-09-20T19:43:11.470Z,40.9
2016-09-20T19:44:11.418Z,41.38
2016-09-20T19:45:11.661Z,40.9
2016-09-20T19:46:11.291Z,41.38
2016-09-20T19:47:11.424Z,41.28
2016-09-20T19:48:11.164Z,41.38
2016-09-20T19:49:11.102Z,40.99
2016-09-20T19:50:11.035Z,40.9
2016-09-20T19:51:10.983Z,40.9
2016-09-20T19:52:11.242Z,41.19
2016-09-20T19:53:11.108Z,41.09
2016-09-20T19:54:10.819Z,41.19
2016-09-20T19:55:10.732Z,40.9
2016-09-20T19:56:10.676Z,41.09
2016-09-20T19:57:10.612Z,41.09
2016-09-20T19:58:10.568Z,40.99
2016-09-20T19:59:10.808Z,41.09
2016-09-20T20:00:10.440Z,41.09
2016-09-20T20:01:10.381Z,40.9
2016-09-20T20:02:10.541Z,40.99
2016-09-20T20:03:10.249Z,40.99
2016-09-20T20:04:10.500Z,41.3
2016-09-20T20:05:10.380Z,41.19
2016-09-20T20:06:10.593Z,41.19
2016-09-20T20:07:10.005Z,41.6
2016-09-20T20:08:10.377Z,41.6
2016-09-20T20:09:10.084Z,41.19
2016-09-20T20:10:10.047Z,41.57
2016-09-20T20:11:09.963Z,40.99
2016-09-20T20:12:10.052Z,41.6
2016-09-20T20:13:09.636Z,41.02
2016-09-20T20:14:09.891Z,41.57
2016-09-20T20:15:09.512Z,40.99
2016-09-20T20:16:09.671Z,41.11
2016-09-20T20:17:09.612Z,40.99
2016-09-20T20:18:09.331Z,40.99
2016-09-20T20:19:09.279Z,40.99
2016-09-20T20:20:09.413Z,40.8
2016-09-20T20:21:09.150Z,40.99
2016-09-20T20:22:09.092Z,40.8
2016-09-20T20:23:09.049Z,40.9
2016-09-20T20:24:08.965Z,40.8
2016-09-20T20:25:08.906Z,40.9
2016-09-20T20:26:08.851Z,40.9
2016-09-20T20:27:08.827Z,40.99
2016-09-20T20:28:08.924Z,40.99
2016-09-20T20:29:08.671Z,41.11
2016-09-20T20:30:08.608Z,40.82
2016-09-20T20:31:08.857Z,40.82
2016-09-20T20:32:08.486Z,41.19
2016-09-20T20:33:08.412Z,40.82
2016-09-20T20:34:08.372Z,40.72
2016-09-20T20:35:08.294Z,40.9
2016-09-20T20:36:08.235Z,41.02
2016-09-20T20:37:08.388Z,40.8
2016-09-20T20:38:08.124Z,41.11
2016-09-20T20:39:08.055Z,41.11
2016-09-20T20:40:08.003Z,40.8
2016-09-20T20:41:07.930Z,40.82
2016-09-20T20:42:07.876Z,40.8
2016-09-20T20:43:07.826Z,40.8
2016-09-20T20:44:07.748Z,40.92
2016-09-20T20:45:07.686Z,40.8
2016-09-20T20:46:07.621Z,40.92
2016-09-20T20:47:07.562Z,41.11
2016-09-20T20:48:07.526Z,40.82
2016-09-20T20:49:07.447Z,41.11
2016-09-20T20:50:07.394Z,41.2
2016-09-20T20:51:07.325Z,40.9
2016-09-20T20:52:07.459Z,40.9
2016-09-20T20:53:07.206Z,41.11
2016-09-20T20:54:07.134Z,41.09
2016-09-20T20:55:07.592Z,40.99
2016-09-20T20:56:07.010Z,40.9
2016-09-20T20:57:06.950Z,40.99
2016-09-20T20:58:06.890Z,40.99
2016-09-20T20:59:06.832Z,41.09
2016-09-20T21:00:07.311Z,41.09
2016-09-20T21:01:06.706Z,41.28
2016-09-20T21:02:06.652Z,41.2
2016-09-20T21:03:06.583Z,41.11
2016-09-20T21:04:06.536Z,40.9
2016-09-20T21:05:06.462Z,41.11
2016-09-20T21:06:06.407Z,40.99
2016-09-20T21:07:06.348Z,40.9
2016-09-20T21:08:06.526Z,40.99
2016-09-20T21:09:06.220Z,40.8
2016-09-20T21:10:06.478Z,41.09
2016-09-20T21:11:06.128Z,41.57
2016-09-20T21:12:06.238Z,41.57
2016-09-20T21:13:05.973Z,41.48
2016-09-20T21:14:06.508Z,41.48
2016-09-20T21:15:05.866Z,41.48
2016-09-20T21:16:05.790Z,41.09
2016-09-20T21:17:06.043Z,41.57
2016-09-20T21:18:05.670Z,41.4
2016-09-20T21:19:05.615Z,41.4
2016-09-20T21:20:05.559Z,41.38
2016-09-20T21:21:05.804Z,41.38
2016-09-20T21:22:05.653Z,41.19
2016-09-20T21:23:05.368Z,41.19
2016-09-20T21:24:05.622Z,41.09
2016-09-20T21:25:05.497Z,41.48
2016-09-20T21:26:05.501Z,41.09
2016-09-20T21:27:05.440Z,41.28
2016-09-20T21:28:05.263Z,41.2
2016-09-20T21:29:05.003Z,40.7
2016-09-20T21:30:05.183Z,40.7
2016-09-20T21:31:04.881Z,40.99
2016-09-20T21:32:04.829Z,41.19
2016-09-20T21:33:04.754Z,41.19
2016-09-20T21:34:04.728Z,41.38
2016-09-20T21:35:04.965Z,41.28
2016-09-20T21:36:04.575Z,41.28
2016-09-20T21:37:04.827Z,41.02
2016-09-20T21:38:04.762Z,41.11
2016-09-20T21:39:04.617Z,47.55
2016-09-20T21:40:04.341Z,44.95
2016-09-20T21:41:04.269Z,41.77
2016-09-20T21:42:04.209Z,41.57
2016-09-20T21:43:04.148Z,41.38
2016-09-20T21:44:04.410Z,41.57
2016-09-20T21:45:04.337Z,41.57
2016-09-20T21:46:03.960Z,41.38
2016-09-20T21:47:03.903Z,41.28
2016-09-20T21:48:03.839Z,41.28
2016-09-20T21:49:03.781Z,41.67
2016-09-20T21:50:03.721Z,41.38
2016-09-20T21:51:03.668Z,41.38
2016-09-20T21:52:03.599Z,41.57
2016-09-20T21:53:03.538Z,41.48
2016-09-20T21:54:03.479Z,41.48
2016-09-20T21:55:03.416Z,41.57
2016-09-20T21:56:03.353Z,41.48
2016-09-20T21:57:03.301Z,41.38
2016-09-20T21:58:03.235Z,41.38
2016-09-20T21:59:03.504Z,41.57
2016-09-20T22:00:03.109Z,41.38
2016-09-20T22:01:03.060Z,41.38
2016-09-20T22:02:03.304Z,41.57
2016-09-20T22:03:03.464Z,41.48
2016-09-20T22:04:02.867Z,41.38
2016-09-20T22:05:02.806Z,41.48
2016-09-20T22:06:02.758Z,41.57
2016-09-20T22:07:02.686Z,41.19
2016-09-20T22:08:02.965Z,41.19
2016-09-20T22:09:02.566Z,41.19
2016-09-20T22:10:02.504Z,41.19
2016-09-20T22:11:02.440Z,41.19
2016-09-20T22:12:02.383Z,41.28
2016-09-20T22:13:02.314Z,41.38
2016-09-20T22:14:02.254Z,41.38
2016-09-20T22:15:02.409Z,41.48
2016-09-20T22:16:02.145Z,41.67
2016-09-20T22:17:02.277Z,41.67
2016-09-20T22:18:02.013Z,41.48
2016-09-20T22:19:01.952Z,41.57
2016-09-20T22:20:01.900Z,41.48
2016-09-20T22:21:01.828Z,41.38
2016-09-20T22:22:01.769Z,41.48
2016-09-20T22:23:01.707Z,41.67
2016-09-20T22:24:01.650Z,41.48
2016-09-20T22:25:01.590Z,41.57
2016-09-20T22:26:01.531Z,41.77
2016-09-20T22:27:01.481Z,41.38
2016-09-20T22:28:01.405Z,41.77
2016-09-20T22:29:01.347Z,41.77
2016-09-20T22:30:01.297Z,41.67
2016-09-20T22:31:01.222Z,41.77
2016-09-20T22:32:01.485Z,41.77
2016-09-20T22:33:01.104Z,41.57
2016-09-20T22:34:01.354Z,41.57
2016-09-20T22:35:00.975Z,41.48
2016-09-20T22:36:00.918Z,41.86
2016-09-20T22:37:01.079Z,41.86
2016-09-20T22:38:00.793Z,41.77
2016-09-20T22:39:00.735Z,41.86
2016-09-20T22:40:00.673Z,41.77
2016-09-20T22:41:00.609Z,41.77
2016-09-20T22:42:00.556Z,41.86
2016-09-20T22:43:00.507Z,41.77
2016-09-20T22:44:00.431Z,41.77
2016-09-20T22:45:00.367Z,41.67
2016-09-20T22:46:00.307Z,41.67
2016-09-20T22:47:00.245Z,41.86
2016-09-20T22:48:00.196Z,41.86
2016-09-20T22:49:00.122Z,41.86
2016-09-20T22:50:00.266Z,41.77
2016-09-20T22:51:00.009Z,42.05
2016-09-20T22:52:00.268Z,42.05
2016-09-20T22:52:59.880Z,42.05
2016-09-20T22:53:59.831Z,42.05
2016-09-20T22:54:59.759Z,42.25
2016-09-20T22:55:59.695Z,41.67
2016-09-20T22:56:59.633Z,41.86
2016-09-20T22:57:59.588Z,42.15
2016-09-20T22:58:59.513Z,42.15
2016-09-20T22:59:59.453Z,42.35
2016-09-20T23:00:59.396Z,42.54
2016-09-20T23:01:59.336Z,42.15
2016-09-20T23:02:59.272Z,42.44
2016-09-20T23:03:59.209Z,42.44
2016-09-20T23:04:59.149Z,42.54
2016-09-20T23:05:59.088Z,42.63
2016-09-20T23:06:59.026Z,42.54
2016-09-20T23:07:59.281Z,42.54
2016-09-20T23:08:58.905Z,42.35
2016-09-20T23:09:58.842Z,42.35
2016-09-20T23:10:58.784Z,42.54
2016-09-20T23:11:58.732Z,42.54
2016-09-20T23:12:58.659Z,42.35
2016-09-20T23:13:58.602Z,42.63
2016-09-20T23:14:58.538Z,42.63
2016-09-20T23:15:58.477Z,42.73
2016-09-20T23:16:58.415Z,42.73
2016-09-20T23:17:58.358Z,42.73
2016-09-20T23:18:58.309Z,42.73
2016-09-20T23:19:58.232Z,42.73
2016-09-20T23:20:58.178Z,42.63
2016-09-20T23:21:58.112Z,42.54
2016-09-20T23:22:58.048Z,42.44
2016-09-20T23:23:58.010Z,42.54
2016-09-20T23:24:57.930Z,42.54
2016-09-20T23:25:57.864Z,42.54
2016-09-20T23:26:57.816Z,42.25
2016-09-20T23:27:57.754Z,42.25
2016-09-20T23:28:57.686Z,42.73
2016-09-20T23:29:57.628Z,42.73
2016-09-20T23:30:57.562Z,42.54
2016-09-20T23:31:57.501Z,42.54
2016-09-20T23:32:57.447Z,42.44
2016-09-20T23:33:57.377Z,42.63
2016-09-20T23:34:57.634Z,42.35
2016-09-20T23:35:57.259Z,42.93
2016-09-20T23:36:57.195Z,42.63
2016-09-20T23:37:57.455Z,42.83
2016-09-20T23:38:57.074Z,42.83
2016-09-20T23:39:57.014Z,42.73
2016-09-20T23:40:56.954Z,42.63
2016-09-20T23:41:56.890Z,42.83
2016-09-20T23:42:56.828Z,42.93
2016-09-20T23:43:56.774Z,42.93
2016-09-20T23:44:56.705Z,42.63
2016-09-20T23:45:56.648Z,43.12
2016-09-20T23:46:56.589Z,43.02
2016-09-20T23:47:56.840Z,43.12
2016-09-20T23:48:56.464Z,42.93
2016-09-20T23:49:56.409Z,43.02
2016-09-20T23:50:56.344Z,43.12
2016-09-20T23:51:56.283Z,42.93
2016-09-20T23:52:56.227Z,43.02
2016-09-20T23:53:56.162Z,42.93
2016-09-20T23:54:56.099Z,42.93
2016-09-20T23:55:56.035Z,43.31
2016-09-20T23:56:55.974Z,43.5
2016-09-20T23:57:55.915Z,43.31
2016-09-20T23:58:55.853Z,43.5
2016-09-20T23:59:55.792Z,43.5
